Flight Track Log - Related Links

Times and Time Zones

All times are in EDT time to prevent confusion due to time zone crossing. See the SWA2955 flight status page for this flight to view local times or setup timezone preferences in your user account.

Time Position Orientation Groundspeed Altitude Reporting Facility
EDT Latitude Longitude Course Direction KTS MPH feet Rate Location/Type
Tue 10:35:34 AM 26.0750 -80.1367 88° East 129 148 1,000  Level Miami Center
Tue 10:35:59 AM 26.0756 -80.1136 88° East 158 182 1,800 2,022 Climbing Miami Center
Tue 10:37:06 AM 26.0956 -80.0564 69° East 219 252 4,100 1,547 Climbing Miami Center
Tue 10:38:07 AM 26.1597 -80.0789 343° North 280 322 5,100 443 Climbing Miami Center
Tue 10:39:08 AM 26.2278 -80.1247 329° Northwest 265 305 5,000 1,218 Descending Miami Center
Tue 10:40:20 AM 26.2742 -80.1956 306° West 286 329 7,800 2,318 Climbing Miami Center
Tue 10:41:20 AM 26.2864 -80.2978 278° West 287 330 10,100 1,900 Climbing Miami Center
Tue 10:42:20 AM 26.2906 -80.3906 273° West 329 379 11,600 2,250 Climbing Miami Center
Tue 10:43:20 AM 26.2917 -80.5156 271° West 366 421 14,600 2,500 Climbing Miami Center
Tue 10:44:20 AM 26.3228 -80.6022 292° West 343 395 16,600 2,250 Climbing Miami Center
Tue 10:45:20 AM 26.3931 -80.7067 307° West 375 432 19,100 2,150 Climbing Miami Center
Tue 10:46:20 AM 26.4514 -80.7944 307° West 387 445 20,900 2,000 Climbing Miami Center
Tue 10:47:20 AM 26.5214 -80.9033 306° West 395 455 23,100 1,850 Climbing Miami Center
Tue 10:48:20 AM 26.5833 -81.0056 304° West 400 460 24,600 1,400 Climbing Miami Center
Tue 10:49:20 AM 26.6453 -81.1006 306° West 406 467 25,900 1,300 Climbing Miami Center
Tue 10:50:20 AM 26.7153 -81.2078 306° West 412 474 27,200 1,500 Climbing Miami Center
Tue 10:51:20 AM 26.7847 -81.3267 303° West 418 481 28,900 1,800 Climbing Miami Center
Tue 10:52:20 AM 26.8481 -81.4336 304° West 418 481 30,800 2,050 Climbing Miami Center
Tue 10:53:20 AM 26.8839 -81.5561 288° West 411 473 33,000 2,050 Climbing Miami Center
Tue 10:54:20 AM 26.9139 -81.6644 287° West 392 451 34,900 1,500 Climbing Miami Center
Tue 10:55:20 AM 26.9433 -81.7753 287° West 375 432 36,000 550 Climbing Miami Center
Tue 10:56:20 AM 26.9733 -81.8811 288° West 369 425 36,000  Level Miami Center
Tue 10:57:20 AM 27.0050 -81.9897 288° West 364 419 36,000  Level Miami Center
Tue 10:58:20 AM 27.0383 -82.1031 288° West 378 435 36,000 -50 Level Miami Center
Tue 10:59:20 AM 27.0697 -82.2164 287° West 378 435 35,900 -50 Descending Miami Center
Tue 11:00:20 AM 27.0994 -82.3133 289° West 383 441 35,900 50 Level Miami Center
Tue 11:01:20 AM 27.1289 -82.4222 287° West 376 433 36,000 50 Climbing Miami Center
Tue 11:02:20 AM 27.1600 -82.5286 288° West 375 432 36,000  Level Miami Center
Tue 11:03:20 AM 27.1886 -82.6514 285° West 363 418 36,000  Level Miami Center
Tue 11:04:20 AM 27.2219 -82.7581 289° West 363 418 36,000  Level Miami Center
Tue 11:05:20 AM 27.2508 -82.8692 286° West 368 423 36,000  Level Miami Center
Tue 11:06:20 AM 27.2817 -82.9783 288° West 368 423 36,000  Level Miami Center
Tue 11:07:20 AM 27.3103 -83.0872 286° West 368 423 36,000  Level Miami Center
Tue 11:08:20 AM 27.3411 -83.1961 288° West 368 423 36,000  Level Miami Center
Tue 11:09:20 AM 27.3694 -83.3078 286° West 368 423 36,000  Level Miami Center
Tue 11:10:20 AM 27.4019 -83.4192 288° West 373 429 36,000  Level Miami Center
Tue 11:11:20 AM 27.4303 -83.5308 286° West 373 429 36,000  Level Miami Center
Tue 11:12:20 AM 27.4606 -83.6400 287° West 368 423 36,000  Level Miami Center
Tue 11:13:20 AM 27.4908 -83.7494 287° West 368 423 36,000  Level Miami Center
Tue 11:14:20 AM 27.5189 -83.8586 286° West 368 423 36,000  Level Miami Center
Tue 11:15:20 AM 27.5447 -83.9703 285° West 368 423 36,000  Level Miami Center
Tue 11:16:20 AM 27.5747 -84.0819 287° West 368 423 36,000  Level Miami Center
Tue 11:18:15 AM 27.6311 -84.2883 287° West 377 434 36,000  Level Jacksonville Center
Tue 11:19:15 AM 27.6633 -84.4014 288° West 377 434 36,000  Level Jacksonville Center
Tue 11:20:15 AM 27.6869 -84.5117 284° West 377 434 36,000  Level Jacksonville Center
Tue 11:21:15 AM 27.7211 -84.6247 289° West 377 434 36,000  Level Jacksonville Center
Tue 11:22:15 AM 27.7467 -84.7356 285° West 377 434 36,000  Level Jacksonville Center
Tue 11:23:15 AM 27.7761 -84.8603 285° West 385 443 36,000  Level Jacksonville Center
Tue 11:24:15 AM 27.8097 -84.9664 290° West 385 443 36,000  Level Jacksonville Center
Tue 11:25:15 AM 27.8392 -85.0844 286° West 380 437 36,000  Level Jacksonville Center
Tue 11:26:15 AM 27.8686 -85.1978 286° West 380 437 36,000  Level Jacksonville Center
Tue 11:27:15 AM 27.8997 -85.3181 286° West 386 444 36,000  Level Jacksonville Center
Tue 11:28:15 AM 27.9350 -85.4317 289° West 386 444 36,000  Level Jacksonville Center
Tue 11:29:15 AM 27.9725 -85.5431 291° West 392 451 36,000  Level Jacksonville Center
Tue 11:30:15 AM 28.0075 -85.6664 288° West 392 451 36,000  Level Jacksonville Center
Tue 11:31:15 AM 28.0425 -85.7731 290° West 386 444 36,000  Level Jacksonville Center
Tue 11:32:15 AM 28.0753 -85.8939 287° West 391 450 36,000  Level Jacksonville Center
Tue 11:33:15 AM 28.1100 -86.0103 289° West 391 450 36,000  Level Jacksonville Center
Tue 11:34:15 AM 28.1447 -86.1242 289° West 391 450 36,000  Level Jacksonville Center
Tue 11:35:15 AM 28.1794 -86.2383 289° West 386 444 36,000  Level Jacksonville Center
Tue 11:36:15 AM 28.2139 -86.3572 288° West 391 450 36,000  Level Jacksonville Center
Tue 11:37:15 AM 28.2483 -86.4739 289° West 385 443 36,000  Level Jacksonville Center
Tue 11:38:15 AM 28.2806 -86.5833 289° West 385 443 36,000  Level Jacksonville Center
Tue 11:39:15 AM 28.3147 -86.7000 288° West 385 443 36,000  Level Jacksonville Center
Tue 11:40:15 AM 28.3489 -86.8169 288° West 385 443 36,000  Level Jacksonville Center
Tue 11:41:15 AM 28.3808 -86.9314 288° West 385 443 36,000  Level Jacksonville Center
Tue 11:42:15 AM 28.4167 -87.0486 289° West 390 449 36,000  Level Jacksonville Center
Tue 11:43:15 AM 28.4522 -87.1703 288° West 390 449 36,000  Level Jacksonville Center
Tue 11:44:15 AM 28.4881 -87.2875 289° West 394 453 36,000  Level Jacksonville Center
Tue 11:45:15 AM 28.5233 -87.4072 289° West 394 453 36,000  Level Jacksonville Center
Tue 11:47:26 AM 28.5931 -87.6636 287° West 400 460 36,000  Level Houston Center
Tue 11:48:28 AM 28.6272 -87.7831 288° West 398 458 36,000  Level Houston Center
Tue 11:49:30 AM 28.6614 -87.9036 288° West 400 460 36,000  Level Houston Center
Tue 11:50:32 AM 28.7153 -88.0433 294° West 405 466 36,000  Level Houston Center
Tue 11:51:34 AM 28.7722 -88.1367 305° West 407 468 36,000 -145 Level Houston Center
Tue 11:52:36 AM 28.8358 -88.2447 304° West 409 471 35,700 -629 Descending Houston Center
Tue 11:53:38 AM 28.9133 -88.3769 304° West 415 478 34,700 -1,104 Descending Houston Center
Tue 11:54:41 AM 28.9794 -88.4872 304° West 419 482 33,400 -1,584 Descending Houston Center
Tue 11:55:43 AM 29.0442 -88.6000 303° West 423 487 31,400 -1,694 Descending Houston Center
Tue 11:56:45 AM 29.1111 -88.7153 304° West 433 498 29,900 -1,161 Descending Houston Center
Tue 11:57:47 AM 29.1800 -88.8306 304° West 437 503 29,000 -919 Descending Houston Center
Tue 11:58:49 AM 29.2467 -88.9475 303° West 438 504 28,000 -1,935 Descending Houston Center
Tue 11:59:51 AM 29.3269 -89.0856 304° West 436 502 25,000 -3,097 Descending Houston Center
Tue 12:00:53 PM 29.3925 -89.1981 304° West 427 491 21,600 -3,290 Descending Houston Center
Tue 12:01:55 PM 29.4558 -89.3106 303° West 422 486 18,200 -3,114 Descending Houston Center
Tue 12:02:12 PM 29.4753 -89.3494 300° West 418 481 17,500 -3,073 Descending Houston Center
Tue 12:02:36 PM 29.5042 -89.3983 304° West 411 473 16,100 -2,739 Descending Houston Center
Tue 12:02:58 PM 29.5183 -89.4189 308° West 413 475 15,400 -2,866 Descending Houston Center
Tue 12:03:43 PM 29.5708 -89.5097 304° West 392 451 12,900 -2,806 Descending Houston Center
Tue 12:04:00 PM 29.5769 -89.5231 298° West 394 453 12,500 -1,964 Descending Houston Center
Tue 12:04:38 PM 29.6244 -89.6053 304° West 382 440 11,100 -1,452 Descending Houston Center
Tue 12:05:02 PM 29.6344 -89.6264 299° West 385 443 11,000 -98 Descending Houston Center
Tue 12:05:39 PM 29.6825 -89.7081 304° West 382 440 11,000  Level Houston Center
Tue 12:06:04 PM 29.7072 -89.7511 303° West 388 447 11,000 -984 Level Houston Center
Tue 12:06:40 PM 29.7425 -89.8106 304° West 392 451 10,000 -1,258 Descending Houston Center
Tue 12:07:06 PM 29.7664 -89.8536 303° West 387 445 9,700 -300 Descending Houston Center
Tue 12:07:40 PM 29.7958 -89.9042 304° West 334 384 9,700 -677 Level Houston Center
Tue 12:08:08 PM 29.8169 -89.9367 307° West 328 377 9,000 -1,522 Descending Houston Center
Tue 12:08:47 PM 29.8531 -89.9950 306° West 297 342 8,000 -1,452 Descending Houston Center
Tue 12:09:10 PM 29.8683 -90.0169 309° West 308 354 7,500 -1,475 Descending Houston Center
Tue 12:09:48 PM 29.9036 -90.0722 306° West 300 345 6,500 -1,333 Descending Houston Center
Tue 12:10:13 PM 29.9200 -90.0928 313° West 305 351 6,100 -1,355 Descending Houston Center
Tue 12:10:50 PM 29.9681 -90.1269 328° Northwest 296 341 5,100 -1,355 Descending Houston Center
Tue 12:11:15 PM 29.9892 -90.1356 341° North 300 345 4,700 -1,444 Descending Houston Center
Tue 12:11:44 PM 30.0378 -90.1531 343° North 291 335 3,800 -1,742 Descending Houston Center
Tue 12:12:17 PM 30.0867 -90.1544 359° North 302 348 2,900 -1,180 Descending Houston Center
Tue 12:12:45 PM 30.1192 -90.1544 360° North 291 335 2,600 -677 Descending Houston Center
Tue 12:13:19 PM 30.1542 -90.1808 327° Northwest 288 331 2,200 -590 Descending Houston Center
Tue 12:13:46 PM 30.1439 -90.2111 249° West 210 242 2,000 -194 Descending Houston Center
Tue 12:14:21 PM 30.1186 -90.2100 178° South 233 268 2,000 -98 Level Houston Center
Tue 12:14:47 PM 30.0939 -90.2156 191° South 165 190 1,900 -581 Descending Houston Center
Tue 12:15:23 PM 30.0750 -90.2233 200° South 191 220 1,400 -885 Descending Houston Center
Tue 12:15:48 PM 30.0569 -90.2292 196° South 126 145 1,000 -677 Descending Houston Center
Tue 12:16:25 PM 30.0400 -90.2347 196° South 156 180 700 -500 Descending Houston Center
Tue 12:16:48 PM 30.0194 -90.2403 193° South 137 158 500 -194 Descending Houston Center
Tue 12:17:27 PM 29.9967 -90.2489 198° South 149 171 500  Level Houston Center

Login

Don't have an account? Register now (free) for customized features, flight alerts, and more!